sensor_id;sensor_type;location;lat;lon;timestamp;pressure;altitude;pressure_sealevel;temperature;humidity
57048;BME280;42934;54.294;18.598;2023-03-15T00:02:11;99165.41;;;2.95;82.92
57048;BME280;42934;54.294;18.598;2023-03-15T00:04:40;99170.69;;;2.90;83.26
57048;BME280;42934;54.294;18.598;2023-03-15T00:07:09;99180.81;;;3.01;82.89
57048;BME280;42934;54.294;18.598;2023-03-15T00:09:38;99185.72;;;3.12;82.83
57048;BME280;42934;54.294;18.598;2023-03-15T00:12:08;99196.13;;;3.10;82.88
57048;BME280;42934;54.294;18.598;2023-03-15T00:14:38;99190.34;;;2.99;82.69
57048;BME280;42934;54.294;18.598;2023-03-15T00:17:09;99198.81;;;3.06;83.36
57048;BME280;42934;54.294;18.598;2023-03-15T00:19:39;99211.53;;;3.16;82.84
57048;BME280;42934;54.294;18.598;2023-03-15T00:22:08;99204.97;;;3.03;83.18
57048;BME280;42934;54.294;18.598;2023-03-15T00:24:37;99217.19;;;2.98;83.36
57048;BME280;42934;54.294;18.598;2023-03-15T00:27:10;99212.75;;;3.03;83.26
57048;BME280;42934;54.294;18.598;2023-03-15T00:29:39;99199.88;;;3.00;83.13
57048;BME280;42934;54.294;18.598;2023-03-15T00:32:10;99208.25;;;3.10;82.84
57048;BME280;42934;54.294;18.598;2023-03-15T00:34:39;99218.78;;;3.04;83.08
57048;BME280;42934;54.294;18.598;2023-03-15T00:37:09;99225.44;;;2.78;83.92
57048;BME280;42934;54.294;18.598;2023-03-15T00:39:38;99225.66;;;3.05;83.18
57048;BME280;42934;54.294;18.598;2023-03-15T00:42:08;99231.22;;;2.89;83.55
57048;BME280;42934;54.294;18.598;2023-03-15T00:44:37;99223.44;;;2.89;83.33
57048;BME280;42934;54.294;18.598;2023-03-15T00:47:07;99231.69;;;3.05;83.05
57048;BME280;42934;54.294;18.598;2023-03-15T00:49:37;99249.75;;;3.10;83.02
57048;BME280;42934;54.294;18.598;2023-03-15T00:52:07;99250.41;;;3.18;82.63
57048;BME280;42934;54.294;18.598;2023-03-15T00:54:36;99249.00;;;3.05;82.77
57048;BME280;42934;54.294;18.598;2023-03-15T00:57:06;99258.69;;;2.98;82.62
57048;BME280;42934;54.294;18.598;2023-03-15T00:59:35;99252.59;;;2.99;83.25
57048;BME280;42934;54.294;18.598;2023-03-15T01:02:05;99262.03;;;3.02;82.83
57048;BME280;42934;54.294;18.598;2023-03-15T01:04:36;99266.41;;;3.00;82.73
57048;BME280;42934;54.294;18.598;2023-03-15T01:07:06;99263.34;;;2.84;82.89
57048;BME280;42934;54.294;18.598;2023-03-15T01:09:37;99267.66;;;2.83;82.71
57048;BME280;42934;54.294;18.598;2023-03-15T01:12:07;99266.63;;;2.90;82.19
57048;BME280;42934;54.294;18.598;2023-03-15T01:14:36;99268.75;;;3.10;82.00
57048;BME280;42934;54.294;18.598;2023-03-15T01:17:07;99277.75;;;2.94;82.15
57048;BME280;42934;54.294;18.598;2023-03-15T01:19:38;99283.22;;;2.83;82.39
57048;BME280;42934;54.294;18.598;2023-03-15T01:22:08;99273.47;;;2.93;82.63
57048;BME280;42934;54.294;18.598;2023-03-15T01:24:37;99280.72;;;2.79;82.21
57048;BME280;42934;54.294;18.598;2023-03-15T01:27:06;99281.84;;;2.67;83.08
57048;BME280;42934;54.294;18.598;2023-03-15T01:29:36;99290.22;;;2.80;83.02
57048;BME280;42934;54.294;18.598;2023-03-15T01:32:07;99298.84;;;2.80;82.55
57048;BME280;42934;54.294;18.598;2023-03-15T01:34:38;99297.84;;;2.86;82.55
57048;BME280;42934;54.294;18.598;2023-03-15T01:37:08;99315.47;;;2.70;83.29
57048;BME280;42934;54.294;18.598;2023-03-15T01:39:44;99290.63;;;2.61;83.58
57048;BME280;42934;54.294;18.598;2023-03-15T01:42:13;99319.47;;;2.85;82.70
57048;BME280;42934;54.294;18.598;2023-03-15T01:44:52;99316.41;;;3.05;82.30
57048;BME280;42934;54.294;18.598;2023-03-15T01:47:22;99323.63;;;2.92;81.98
57048;BME280;42934;54.294;18.598;2023-03-15T01:50:03;99326.66;;;2.72;82.89
57048;BME280;42934;54.294;18.598;2023-03-15T01:52:37;99329.22;;;2.73;82.31
57048;BME280;42934;54.294;18.598;2023-03-15T01:55:14;99335.97;;;2.81;82.11
57048;BME280;42934;54.294;18.598;2023-03-15T01:57:59;99342.91;;;2.80;82.42
57048;BME280;42934;54.294;18.598;2023-03-15T02:00:30;99336.69;;;2.87;81.64
57048;BME280;42934;54.294;18.598;2023-03-15T02:03:07;99353.16;;;2.86;81.78
57048;BME280;42934;54.294;18.598;2023-03-15T02:05:47;99356.72;;;2.81;81.56
57048;BME280;42934;54.294;18.598;2023-03-15T02:08:55;99367.03;;;2.82;81.54
57048;BME280;42934;54.294;18.598;2023-03-15T02:11:30;99386.22;;;2.73;81.20
57048;BME280;42934;54.294;18.598;2023-03-15T02:14:02;99389.78;;;2.69;81.08
57048;BME280;42934;54.294;18.598;2023-03-15T02:16:35;99385.22;;;2.81;80.80
57048;BME280;42934;54.294;18.598;2023-03-15T02:19:16;99395.78;;;2.71;80.76
57048;BME280;42934;54.294;18.598;2023-03-15T02:21:59;99406.22;;;2.68;81.30
57048;BME280;42934;54.294;18.598;2023-03-15T02:24:40;99411.94;;;2.84;81.29
57048;BME280;42934;54.294;18.598;2023-03-15T02:27:13;99420.75;;;2.77;80.66
57048;BME280;42934;54.294;18.598;2023-03-15T02:29:44;99425.09;;;2.73;81.00
57048;BME280;42934;54.294;18.598;2023-03-15T02:32:13;99419.31;;;2.61;81.33
57048;BME280;42934;54.294;18.598;2023-03-15T02:34:42;99428.41;;;2.82;81.17
57048;BME280;42934;54.294;18.598;2023-03-15T02:37:12;99433.38;;;2.50;81.63
57048;BME280;42934;54.294;18.598;2023-03-15T02:39:41;99435.06;;;2.52;81.88
57048;BME280;42934;54.294;18.598;2023-03-15T02:42:12;99444.16;;;2.72;80.89
57048;BME280;42934;54.294;18.598;2023-03-15T02:44:45;99450.25;;;2.70;80.69
57048;BME280;42934;54.294;18.598;2023-03-15T02:47:19;99456.63;;;2.52;81.27
57048;BME280;42934;54.294;18.598;2023-03-15T02:49:51;99461.69;;;2.58;81.21
57048;BME280;42934;54.294;18.598;2023-03-15T02:52:21;99461.75;;;2.57;80.52
57048;BME280;42934;54.294;18.598;2023-03-15T02:54:51;99464.16;;;2.66;80.19
57048;BME280;42934;54.294;18.598;2023-03-15T02:57:21;99470.97;;;2.71;80.73
57048;BME280;42934;54.294;18.598;2023-03-15T02:59:52;99479.00;;;2.58;80.68
57048;BME280;42934;54.294;18.598;2023-03-15T03:02:22;99489.66;;;2.41;80.90
57048;BME280;42934;54.294;18.598;2023-03-15T03:04:52;99481.09;;;2.37;80.53
57048;BME280;42934;54.294;18.598;2023-03-15T03:07:21;99481.78;;;2.47;80.34
57048;BME280;42934;54.294;18.598;2023-03-15T03:09:59;99496.44;;;2.48;80.91
57048;BME280;42934;54.294;18.598;2023-03-15T03:12:40;99503.56;;;2.37;81.08
57048;BME280;42934;54.294;18.598;2023-03-15T03:15:11;99511.31;;;2.38;80.87
57048;BME280;42934;54.294;18.598;2023-03-15T03:17:40;99514.81;;;2.36;80.60
57048;BME280;42934;54.294;18.598;2023-03-15T03:20:13;99510.44;;;2.39;80.36
57048;BME280;42934;54.294;18.598;2023-03-15T03:22:45;99521.00;;;2.27;80.17
57048;BME280;42934;54.294;18.598;2023-03-15T03:25:17;99531.06;;;2.44;80.00
57048;BME280;42934;54.294;18.598;2023-03-15T03:27:47;99536.97;;;2.52;79.98
57048;BME280;42934;54.294;18.598;2023-03-15T03:30:18;99551.47;;;2.62;78.79
57048;BME280;42934;54.294;18.598;2023-03-15T03:32:50;99548.13;;;2.56;79.38
57048;BME280;42934;54.294;18.598;2023-03-15T03:35:21;99552.72;;;2.40;80.08
57048;BME280;42934;54.294;18.598;2023-03-15T03:37:50;99564.97;;;2.30;80.01
57048;BME280;42934;54.294;18.598;2023-03-15T03:40:29;99563.16;;;2.35;80.67
57048;BME280;42934;54.294;18.598;2023-03-15T03:42:59;99565.41;;;2.55;79.93
57048;BME280;42934;54.294;18.598;2023-03-15T03:45:30;99569.50;;;2.68;79.57
57048;BME280;42934;54.294;18.598;2023-03-15T03:48:00;99579.13;;;2.62;79.58
57048;BME280;42934;54.294;18.598;2023-03-15T03:50:31;99587.97;;;2.48;79.82
57048;BME280;42934;54.294;18.598;2023-03-15T03:53:00;99600.50;;;2.22;81.18
57048;BME280;42934;54.294;18.598;2023-03-15T03:55:33;99608.44;;;2.11;81.84
57048;BME280;42934;54.294;18.598;2023-03-15T03:58:02;99616.88;;;2.24;82.09
57048;BME280;42934;54.294;18.598;2023-03-15T04:00:41;99627.66;;;1.95;83.54
57048;BME280;42934;54.294;18.598;2023-03-15T04:03:11;99626.34;;;2.25;83.47
57048;BME280;42934;54.294;18.598;2023-03-15T04:05:45;99638.44;;;2.24;83.48
57048;BME280;42934;54.294;18.598;2023-03-15T04:08:18;99641.13;;;2.18;84.32
57048;BME280;42934;54.294;18.598;2023-03-15T04:10:51;99647.31;;;2.08;84.01
57048;BME280;42934;54.294;18.598;2023-03-15T04:13:22;99656.91;;;2.00;85.29
57048;BME280;42934;54.294;18.598;2023-03-15T04:15:53;99660.56;;;1.87;86.14
57048;BME280;42934;54.294;18.598;2023-03-15T04:18:27;99658.66;;;2.01;86.28
57048;BME280;42934;54.294;18.598;2023-03-15T04:20:57;99662.78;;;2.13;85.09
57048;BME280;42934;54.294;18.598;2023-03-15T04:23:26;99678.50;;;1.99;84.74
57048;BME280;42934;54.294;18.598;2023-03-15T04:26:16;99678.75;;;1.79;86.42
57048;BME280;42934;54.294;18.598;2023-03-15T04:29:14;99682.00;;;1.98;86.14
57048;BME280;42934;54.294;18.598;2023-03-15T04:32:04;99688.03;;;1.97;86.51
57048;BME280;42934;54.294;18.598;2023-03-15T04:34:46;99693.34;;;1.85;86.53
57048;BME280;42934;54.294;18.598;2023-03-15T04:37:36;99700.00;;;2.05;85.33
57048;BME280;42934;54.294;18.598;2023-03-15T04:40:28;99699.06;;;2.11;84.83
57048;BME280;42934;54.294;18.598;2023-03-15T04:43:13;99704.59;;;1.84;85.42
57048;BME280;42934;54.294;18.598;2023-03-15T04:45:53;99705.53;;;1.79;85.62
57048;BME280;42934;54.294;18.598;2023-03-15T04:48:53;99710.59;;;1.87;85.27
57048;BME280;42934;54.294;18.598;2023-03-15T04:51:22;99703.59;;;1.95;85.10
57048;BME280;42934;54.294;18.598;2023-03-15T04:54:19;99717.63;;;1.77;84.69
57048;BME280;42934;54.294;18.598;2023-03-15T04:57:03;99709.19;;;1.60;84.60
57048;BME280;42934;54.294;18.598;2023-03-15T04:59:55;99720.16;;;1.80;85.39
57048;BME280;42934;54.294;18.598;2023-03-15T05:02:40;99722.59;;;1.93;84.43
57048;BME280;42934;54.294;18.598;2023-03-15T05:05:28;99722.75;;;1.80;84.08
57048;BME280;42934;54.294;18.598;2023-03-15T05:08:20;99733.31;;;1.62;85.27
57048;BME280;42934;54.294;18.598;2023-03-15T05:11:21;99740.00;;;1.81;84.53
57048;BME280;42934;54.294;18.598;2023-03-15T05:14:13;99731.22;;;1.93;83.41
57048;BME280;42934;54.294;18.598;2023-03-15T05:17:07;99734.50;;;2.09;83.54
57048;BME280;42934;54.294;18.598;2023-03-15T05:19:54;99740.34;;;2.20;82.30
57048;BME280;42934;54.294;18.598;2023-03-15T05:22:43;99756.19;;;1.99;84.00
57048;BME280;42934;54.294;18.598;2023-03-15T05:25:15;99757.75;;;2.12;82.75
57048;BME280;42934;54.294;18.598;2023-03-15T05:28:05;99773.81;;;1.66;84.44
57048;BME280;42934;54.294;18.598;2023-03-15T05:30:52;99782.22;;;1.87;84.40
57048;BME280;42934;54.294;18.598;2023-03-15T05:33:33;99792.63;;;1.80;84.85
57048;BME280;42934;54.294;18.598;2023-03-15T05:36:25;99793.41;;;1.89;84.40
57048;BME280;42934;54.294;18.598;2023-03-15T05:39:22;99795.91;;;1.98;84.51
57048;BME280;42934;54.294;18.598;2023-03-15T05:42:07;99799.41;;;1.91;84.95
57048;BME280;42934;54.294;18.598;2023-03-15T05:44:57;99804.72;;;1.78;85.37
57048;BME280;42934;54.294;18.598;2023-03-15T05:47:26;99811.38;;;2.02;84.84
57048;BME280;42934;54.294;18.598;2023-03-15T05:50:01;99819.59;;;1.59;85.73
57048;BME280;42934;54.294;18.598;2023-03-15T05:53:07;99808.81;;;1.99;84.61
57048;BME280;42934;54.294;18.598;2023-03-15T05:56:01;99820.69;;;2.17;84.29
57048;BME280;42934;54.294;18.598;2023-03-15T05:58:48;99825.22;;;1.98;84.43
57048;BME280;42934;54.294;18.598;2023-03-15T06:01:26;99823.50;;;2.00;85.01
57048;BME280;42934;54.294;18.598;2023-03-15T06:04:15;99843.31;;;2.00;84.48
57048;BME280;42934;54.294;18.598;2023-03-15T06:06:45;99845.97;;;1.95;84.81
57048;BME280;42934;54.294;18.598;2023-03-15T06:09:14;99851.66;;;2.30;83.92
57048;BME280;42934;54.294;18.598;2023-03-15T06:11:47;99857.66;;;2.32;82.86
57048;BME280;42934;54.294;18.598;2023-03-15T06:14:16;99869.63;;;2.40;82.70
57048;BME280;42934;54.294;18.598;2023-03-15T06:16:50;99870.84;;;2.10;83.54
57048;BME280;42934;54.294;18.598;2023-03-15T06:19:19;99872.44;;;2.20;83.17
57048;BME280;42934;54.294;18.598;2023-03-15T06:21:50;99878.63;;;2.10;82.89
57048;BME280;42934;54.294;18.598;2023-03-15T06:24:27;99875.13;;;2.13;83.03
57048;BME280;42934;54.294;18.598;2023-03-15T06:26:58;99872.47;;;2.17;82.62
57048;BME280;42934;54.294;18.598;2023-03-15T06:29:28;99875.31;;;1.97;82.18
57048;BME280;42934;54.294;18.598;2023-03-15T06:31:58;99869.22;;;2.00;82.45
57048;BME280;42934;54.294;18.598;2023-03-15T06:34:28;99887.16;;;2.17;81.76
57048;BME280;42934;54.294;18.598;2023-03-15T06:36:57;99892.41;;;2.12;81.71
57048;BME280;42934;54.294;18.598;2023-03-15T06:39:27;99894.00;;;2.24;81.85
57048;BME280;42934;54.294;18.598;2023-03-15T06:41:57;99899.06;;;2.35;81.34
57048;BME280;42934;54.294;18.598;2023-03-15T06:44:30;99914.66;;;2.30;81.41
57048;BME280;42934;54.294;18.598;2023-03-15T06:47:03;99910.22;;;2.41;81.98
57048;BME280;42934;54.294;18.598;2023-03-15T06:49:33;99915.38;;;2.43;81.23
57048;BME280;42934;54.294;18.598;2023-03-15T06:52:03;99917.16;;;2.38;81.15
57048;BME280;42934;54.294;18.598;2023-03-15T06:54:32;99923.94;;;2.51;81.59
57048;BME280;42934;54.294;18.598;2023-03-15T06:57:03;99918.50;;;2.71;80.93
57048;BME280;42934;54.294;18.598;2023-03-15T06:59:33;99918.53;;;2.69;81.03
57048;BME280;42934;54.294;18.598;2023-03-15T07:02:02;99937.63;;;2.62;80.55
57048;BME280;42934;54.294;18.598;2023-03-15T07:04:31;99947.03;;;2.69;80.06
57048;BME280;42934;54.294;18.598;2023-03-15T07:07:00;99942.63;;;2.78;80.27
57048;BME280;42934;54.294;18.598;2023-03-15T07:09:30;99957.38;;;2.72;79.85
57048;BME280;42934;54.294;18.598;2023-03-15T07:11:59;99970.22;;;2.83;79.66
57048;BME280;42934;54.294;18.598;2023-03-15T07:14:29;99971.84;;;2.90;79.38
57048;BME280;42934;54.294;18.598;2023-03-15T07:16:59;99963.97;;;2.96;79.08
57048;BME280;42934;54.294;18.598;2023-03-15T07:19:28;99972.84;;;2.80;79.30
57048;BME280;42934;54.294;18.598;2023-03-15T07:21:57;99968.44;;;2.88;78.66
57048;BME280;42934;54.294;18.598;2023-03-15T07:24:26;99980.78;;;2.63;79.56
57048;BME280;42934;54.294;18.598;2023-03-15T07:26:56;99972.13;;;2.64;79.63
57048;BME280;42934;54.294;18.598;2023-03-15T07:29:25;99977.97;;;2.83;79.15
57048;BME280;42934;54.294;18.598;2023-03-15T07:31:55;99971.94;;;2.83;78.75
57048;BME280;42934;54.294;18.598;2023-03-15T07:34:25;99971.13;;;2.76;78.75
57048;BME280;42934;54.294;18.598;2023-03-15T07:36:54;99971.09;;;2.81;79.18
57048;BME280;42934;54.294;18.598;2023-03-15T07:39:23;99964.22;;;2.78;78.74
57048;BME280;42934;54.294;18.598;2023-03-15T07:41:53;99972.63;;;2.95;78.77
57048;BME280;42934;54.294;18.598;2023-03-15T07:44:30;99987.31;;;2.98;78.57
57048;BME280;42934;54.294;18.598;2023-03-15T07:47:01;99982.19;;;2.92;78.68
57048;BME280;42934;54.294;18.598;2023-03-15T07:49:30;100001.22;;;2.91;78.37
57048;BME280;42934;54.294;18.598;2023-03-15T07:52:01;100004.94;;;2.67;78.63
57048;BME280;42934;54.294;18.598;2023-03-15T07:54:31;100008.13;;;2.92;78.88
57048;BME280;42934;54.294;18.598;2023-03-15T07:57:01;100015.03;;;2.94;79.09
57048;BME280;42934;54.294;18.598;2023-03-15T07:59:30;100021.91;;;2.94;79.67
57048;BME280;42934;54.294;18.598;2023-03-15T08:02:01;100029.63;;;3.03;79.71
57048;BME280;42934;54.294;18.598;2023-03-15T08:04:31;100038.53;;;2.76;80.93
57048;BME280;42934;54.294;18.598;2023-03-15T08:07:03;100038.50;;;2.79;81.25
57048;BME280;42934;54.294;18.598;2023-03-15T08:09:32;100044.25;;;3.07;81.53
57048;BME280;42934;54.294;18.598;2023-03-15T08:12:02;100051.19;;;3.05;80.98
57048;BME280;42934;54.294;18.598;2023-03-15T08:14:31;100045.88;;;3.16;81.20
57048;BME280;42934;54.294;18.598;2023-03-15T08:17:02;100056.19;;;3.21;81.54
57048;BME280;42934;54.294;18.598;2023-03-15T08:19:56;100055.44;;;3.11;81.89
57048;BME280;42934;54.294;18.598;2023-03-15T08:22:26;100058.25;;;2.92;81.33
57048;BME280;42934;54.294;18.598;2023-03-15T08:24:55;100058.94;;;3.08;81.75
57048;BME280;42934;54.294;18.598;2023-03-15T08:27:25;100068.22;;;3.28;81.70
57048;BME280;42934;54.294;18.598;2023-03-15T08:29:54;100068.09;;;3.38;80.06
57048;BME280;42934;54.294;18.598;2023-03-15T08:32:25;100073.09;;;3.52;79.86
57048;BME280;42934;54.294;18.598;2023-03-15T08:34:54;100084.34;;;3.51;79.05
57048;BME280;42934;54.294;18.598;2023-03-15T08:37:23;100089.63;;;3.45;78.40
57048;BME280;42934;54.294;18.598;2023-03-15T08:39:52;100096.47;;;3.51;77.69
57048;BME280;42934;54.294;18.598;2023-03-15T08:42:31;100108.41;;;3.64;78.27
57048;BME280;42934;54.294;18.598;2023-03-15T08:45:00;100109.53;;;3.43;78.67
57048;BME280;42934;54.294;18.598;2023-03-15T08:47:31;100116.47;;;3.42;78.90
57048;BME280;42934;54.294;18.598;2023-03-15T08:50:02;100121.69;;;3.39;77.79
57048;BME280;42934;54.294;18.598;2023-03-15T08:52:34;100127.47;;;3.63;77.48
57048;BME280;42934;54.294;18.598;2023-03-15T08:55:04;100122.59;;;3.38;77.20
57048;BME280;42934;54.294;18.598;2023-03-15T08:57:33;100123.28;;;3.50;77.60
57048;BME280;42934;54.294;18.598;2023-03-15T09:00:05;100130.78;;;3.73;76.86
57048;BME280;42934;54.294;18.598;2023-03-15T09:02:37;100132.84;;;3.46;73.67
57048;BME280;42934;54.294;18.598;2023-03-15T09:05:07;100136.09;;;3.65;74.09
57048;BME280;42934;54.294;18.598;2023-03-15T09:07:39;100135.25;;;3.61;73.18
57048;BME280;42934;54.294;18.598;2023-03-15T09:10:10;100148.19;;;3.64;72.40
57048;BME280;42934;54.294;18.598;2023-03-15T09:12:42;100154.09;;;3.80;71.96
57048;BME280;42934;54.294;18.598;2023-03-15T09:15:11;100148.53;;;4.06;71.98
57048;BME280;42934;54.294;18.598;2023-03-15T09:17:43;100155.53;;;4.00;70.41
57048;BME280;42934;54.294;18.598;2023-03-15T09:20:13;100159.59;;;4.19;70.01
57048;BME280;42934;54.294;18.598;2023-03-15T09:22:48;100171.97;;;4.02;67.77
57048;BME280;42934;54.294;18.598;2023-03-15T09:25:18;100177.00;;;4.14;67.85
57048;BME280;42934;54.294;18.598;2023-03-15T09:27:48;100172.16;;;4.47;68.65
57048;BME280;42934;54.294;18.598;2023-03-15T09:30:18;100174.50;;;4.65;67.99
57048;BME280;42934;54.294;18.598;2023-03-15T09:32:49;100165.66;;;4.75;66.45
57048;BME280;42934;54.294;18.598;2023-03-15T09:35:19;100168.88;;;4.91;65.35
57048;BME280;42934;54.294;18.598;2023-03-15T09:37:50;100166.78;;;5.12;66.21
57048;BME280;42934;54.294;18.598;2023-03-15T09:40:22;100178.56;;;5.31;64.94
57048;BME280;42934;54.294;18.598;2023-03-15T09:43:02;100184.13;;;5.11;63.40
57048;BME280;42934;54.294;18.598;2023-03-15T09:45:45;100179.75;;;5.15;63.03
57048;BME280;42934;54.294;18.598;2023-03-15T09:48:23;100186.53;;;5.20;62.91
57048;BME280;42934;54.294;18.598;2023-03-15T09:50:59;100191.28;;;4.98;63.41
57048;BME280;42934;54.294;18.598;2023-03-15T09:53:32;100199.22;;;4.91;63.07
57048;BME280;42934;54.294;18.598;2023-03-15T09:56:18;100212.84;;;5.07;64.03
57048;BME280;42934;54.294;18.598;2023-03-15T09:58:50;100209.72;;;4.86;63.18
57048;BME280;42934;54.294;18.598;2023-03-15T10:01:24;100213.78;;;5.01;63.75
57048;BME280;42934;54.294;18.598;2023-03-15T10:04:05;100213.09;;;4.91;63.63
57048;BME280;42934;54.294;18.598;2023-03-15T10:06:37;100217.63;;;4.80;64.03
57048;BME280;42934;54.294;18.598;2023-03-15T10:09:15;100214.53;;;5.09;64.58
57048;BME280;42934;54.294;18.598;2023-03-15T10:11:52;100212.63;;;5.17;64.18
57048;BME280;42934;54.294;18.598;2023-03-15T10:17:27;100222.19;;;5.17;63.12
57048;BME280;42934;54.294;18.598;2023-03-15T10:20:06;100239.88;;;4.98;61.77
57048;BME280;42934;54.294;18.598;2023-03-15T10:22:43;100231.56;;;4.73;61.30
57048;BME280;42934;54.294;18.598;2023-03-15T10:25:17;100240.88;;;4.88;61.95
57048;BME280;42934;54.294;18.598;2023-03-15T10:27:53;100238.06;;;5.01;62.85
57048;BME280;42934;54.294;18.598;2023-03-15T10:30:25;100238.75;;;5.13;62.68
57048;BME280;42934;54.294;18.598;2023-03-15T10:32:57;100244.88;;;5.09;61.17
57048;BME280;42934;54.294;18.598;2023-03-15T10:35:30;100240.50;;;5.12;61.85
57048;BME280;42934;54.294;18.598;2023-03-15T10:37:59;100250.47;;;5.38;62.51
57048;BME280;42934;54.294;18.598;2023-03-15T10:40:41;100258.84;;;5.54;61.09
57048;BME280;42934;54.294;18.598;2023-03-15T10:43:18;100252.34;;;5.77;62.25
57048;BME280;42934;54.294;18.598;2023-03-15T10:45:58;100245.75;;;6.04;62.98
57048;BME280;42934;54.294;18.598;2023-03-15T10:48:29;100245.50;;;6.16;61.01
57048;BME280;42934;54.294;18.598;2023-03-15T10:51:04;100254.59;;;6.37;58.08
57048;BME280;42934;54.294;18.598;2023-03-15T10:53:33;100259.72;;;6.42;58.40
57048;BME280;42934;54.294;18.598;2023-03-15T10:56:07;100260.03;;;6.26;57.92
57048;BME280;42934;54.294;18.598;2023-03-15T10:58:46;100263.97;;;6.05;55.22
57048;BME280;42934;54.294;18.598;2023-03-15T11:01:35;100266.53;;;6.07;55.50
57048;BME280;42934;54.294;18.598;2023-03-15T11:04:15;100265.44;;;5.74;56.72
57048;BME280;42934;54.294;18.598;2023-03-15T11:06:48;100267.16;;;5.73;55.31
57048;BME280;42934;54.294;18.598;2023-03-15T11:09:19;100274.75;;;5.37;54.64
57048;BME280;42934;54.294;18.598;2023-03-15T11:12:01;100274.84;;;5.33;53.20
57048;BME280;42934;54.294;18.598;2023-03-15T11:14:34;100272.97;;;5.41;53.69
57048;BME280;42934;54.294;18.598;2023-03-15T11:17:06;100275.66;;;5.36;54.68
57048;BME280;42934;54.294;18.598;2023-03-15T11:19:40;100271.69;;;5.14;53.29
57048;BME280;42934;54.294;18.598;2023-03-15T11:22:13;100272.97;;;5.41;54.57
57048;BME280;42934;54.294;18.598;2023-03-15T11:24:42;100270.41;;;5.84;54.25
57048;BME280;42934;54.294;18.598;2023-03-15T11:27:14;100269.94;;;6.10;54.14
57048;BME280;42934;54.294;18.598;2023-03-15T11:29:47;100269.34;;;6.40;53.17
57048;BME280;42934;54.294;18.598;2023-03-15T11:32:19;100265.69;;;6.47;51.76
57048;BME280;42934;54.294;18.598;2023-03-15T11:34:55;100265.03;;;6.76;52.04
57048;BME280;42934;54.294;18.598;2023-03-15T11:37:31;100272.00;;;6.77;52.14
57048;BME280;42934;54.294;18.598;2023-03-15T11:40:04;100274.91;;;6.63;51.90
57048;BME280;42934;54.294;18.598;2023-03-15T11:42:45;100276.78;;;6.56;52.06
57048;BME280;42934;54.294;18.598;2023-03-15T11:45:21;100277.50;;;6.63;52.43
57048;BME280;42934;54.294;18.598;2023-03-15T11:47:53;100280.78;;;7.09;53.00
57048;BME280;42934;54.294;18.598;2023-03-15T11:50:23;100274.03;;;7.36;50.28
57048;BME280;42934;54.294;18.598;2023-03-15T11:52:54;100292.09;;;7.43;49.25
57048;BME280;42934;54.294;18.598;2023-03-15T11:55:29;100290.78;;;7.61;49.24
57048;BME280;42934;54.294;18.598;2023-03-15T11:58:26;100288.72;;;7.74;48.55
57048;BME280;42934;54.294;18.598;2023-03-15T12:01:00;100288.53;;;7.80;48.00
57048;BME280;42934;54.294;18.598;2023-03-15T12:03:38;100300.97;;;7.70;46.67
57048;BME280;42934;54.294;18.598;2023-03-15T12:06:34;100291.22;;;8.10;48.01
57048;BME280;42934;54.294;18.598;2023-03-15T12:09:39;100314.47;;;7.88;47.13
57048;BME280;42934;54.294;18.598;2023-03-15T12:12:42;100308.94;;;7.99;46.78
57048;BME280;42934;54.294;18.598;2023-03-15T12:15:40;100307.72;;;8.12;47.83
57048;BME280;42934;54.294;18.598;2023-03-15T12:18:37;100306.09;;;8.37;47.05
57048;BME280;42934;54.294;18.598;2023-03-15T12:21:11;100312.56;;;8.57;47.54
57048;BME280;42934;54.294;18.598;2023-03-15T12:23:45;100295.91;;;8.87;46.88
57048;BME280;42934;54.294;18.598;2023-03-15T12:26:43;100306.75;;;9.03;47.42
57048;BME280;42934;54.294;18.598;2023-03-15T12:29:19;100305.00;;;9.30;48.01
57048;BME280;42934;54.294;18.598;2023-03-15T12:31:58;100319.91;;;9.28;46.33
57048;BME280;42934;54.294;18.598;2023-03-15T12:34:41;100325.41;;;8.93;43.57
57048;BME280;42934;54.294;18.598;2023-03-15T12:37:17;100326.19;;;9.23;46.95
57048;BME280;42934;54.294;18.598;2023-03-15T12:39:50;100329.09;;;9.42;44.99
57048;BME280;42934;54.294;18.598;2023-03-15T12:45:43;100333.63;;;9.08;44.74
57048;BME280;42934;54.294;18.598;2023-03-15T12:48:21;100347.06;;;8.70;44.68
57048;BME280;42934;54.294;18.598;2023-03-15T12:50:53;100353.97;;;8.41;43.92
57048;BME280;42934;54.294;18.598;2023-03-15T12:53:36;100355.38;;;8.53;44.64
57048;BME280;42934;54.294;18.598;2023-03-15T12:56:34;100353.72;;;8.19;44.05
57048;BME280;42934;54.294;18.598;2023-03-15T12:59:20;100362.47;;;8.18;44.81
57048;BME280;42934;54.294;18.598;2023-03-15T13:01:52;100361.56;;;8.19;45.57
57048;BME280;42934;54.294;18.598;2023-03-15T13:04:24;100357.63;;;8.03;46.11
57048;BME280;42934;54.294;18.598;2023-03-15T13:07:19;100366.03;;;7.47;45.05
57048;BME280;42934;54.294;18.598;2023-03-15T13:12:54;100375.38;;;6.81;44.75
57048;BME280;42934;54.294;18.598;2023-03-15T13:15:28;100378.50;;;6.11;45.15
57048;BME280;42934;54.294;18.598;2023-03-15T13:18:10;100372.09;;;6.29;46.87
57048;BME280;42934;54.294;18.598;2023-03-15T13:21:06;100360.66;;;6.36;48.32
57048;BME280;42934;54.294;18.598;2023-03-15T13:23:42;100385.38;;;6.60;46.73
57048;BME280;42934;54.294;18.598;2023-03-15T13:26:34;100373.78;;;6.75;44.89
57048;BME280;42934;54.294;18.598;2023-03-15T13:29:12;100373.81;;;7.13;44.03
57048;BME280;42934;54.294;18.598;2023-03-15T13:31:45;100376.59;;;7.05;44.66
57048;BME280;42934;54.294;18.598;2023-03-15T13:34:18;100368.91;;;7.36;44.31
57048;BME280;42934;54.294;18.598;2023-03-15T13:36:53;100388.59;;;7.49;44.81
57048;BME280;42934;54.294;18.598;2023-03-15T13:39:24;100390.50;;;7.44;45.10
57048;BME280;42934;54.294;18.598;2023-03-15T13:41:57;100399.47;;;6.94;44.14
57048;BME280;42934;54.294;18.598;2023-03-15T13:44:27;100396.88;;;7.31;42.36
57048;BME280;42934;54.294;18.598;2023-03-15T13:46:57;100402.91;;;7.35;41.29